Time;durP1;ratioP1;P1;durP2;ratioP2;P2;SDS_P1;SDS_P2;PMS_P1;PMS_P2;Temp;Humidity;BMP_temperature;BMP_pressure;BME280_temperature;BME280_humidity;BME280_pressure;Samples;Min_cycle;Max_cycle;Signal;HPM_P1;HPM_P2
2021/11/25 00:00:07;;;;;;;3.33;2.35;;;;;;;;;;5073047;28;20497;-62
2021/11/25 00:02:33;;;;;;;2.83;1.95;;;;;;;;;;5072382;28;20052;-58
2021/11/25 00:04:59;;;;;;;2.72;2.10;;;;;;;;;;5072125;28;20528;-59
2021/11/25 00:07:25;;;;;;;3.75;2.55;;;;;;;;;;5072497;28;20028;-61
2021/11/25 00:09:51;;;;;;;3.47;2.22;;;;;;;;;;5073250;28;20036;-57
2021/11/25 00:12:17;;;;;;;2.50;2.05;;;;;;;;;;5072617;28;20032;-59
2021/11/25 00:14:44;;;;;;;3.10;2.05;;;;;;;;;;5073349;28;20478;-57
2021/11/25 00:17:10;;;;;;;3.67;2.30;;;;;;;;;;5073106;28;20482;-58
2021/11/25 00:19:36;;;;;;;2.75;2.10;;;;;;;;;;5072368;28;20084;-57
2021/11/25 00:22:02;;;;;;;3.67;2.38;;;;;;;;;;5068066;28;20053;-58
2021/11/25 00:24:28;;;;;;;2.88;2.10;;;;;;;;;;5069720;28;20017;-58
2021/11/25 00:26:54;;;;;;;4.13;2.60;;;;;;;;;;5073476;28;20081;-58
2021/11/25 00:29:20;;;;;;;2.60;2.30;;;;;;;;;;5072123;28;20028;-58
2021/11/25 00:31:46;;;;;;;3.80;2.63;;;;;;;;;;5073119;28;20355;-58
2021/11/25 00:34:12;;;;;;;3.05;2.42;;;;;;;;;;5072887;28;20031;-58
2021/11/25 00:36:37;;;;;;;2.97;2.50;;;;;;;;;;5070509;28;20094;-58
2021/11/25 00:39:03;;;;;;;3.08;2.30;;;;;;;;;;5072516;28;20024;-58
2021/11/25 00:41:29;;;;;;;2.42;2.05;;;;;;;;;;5072108;28;20029;-59
2021/11/25 00:43:55;;;;;;;2.22;1.90;;;;;;;;;;5072698;28;20381;-58
2021/11/25 00:46:22;;;;;;;3.10;2.20;;;;;;;;;;5072145;28;20032;-58
2021/11/25 00:48:49;;;;;;;3.17;2.28;;;;;;;;;;5072021;28;20036;-57
2021/11/25 00:51:21;;;;;;;3.20;2.38;;;;;;;;;;5072425;28;20032;-61
2021/11/25 00:53:47;;;;;;;3.55;2.60;;;;;;;;;;5032908;28;20022;-58
2021/11/25 00:56:13;;;;;;;3.30;2.47;;;;;;;;;;5045489;28;20029;-57
2021/11/25 00:58:39;;;;;;;3.20;2.25;;;;;;;;;;5071751;28;20480;-58
2021/11/25 01:01:05;;;;;;;2.50;2.15;;;;;;;;;;5072930;28;20028;-57
2021/11/25 01:03:31;;;;;;;3.85;2.13;;;;;;;;;;5072237;28;20052;-58
2021/11/25 01:05:57;;;;;;;3.10;2.03;;;;;;;;;;5072838;28;20048;-56
2021/11/25 01:08:23;;;;;;;3.67;2.58;;;;;;;;;;5067445;28;20084;-58
2021/11/25 01:10:49;;;;;;;2.83;2.03;;;;;;;;;;5071716;28;20060;-57
2021/11/25 01:13:22;;;;;;;2.40;2.05;;;;;;;;;;5071994;28;20142;-61
2021/11/25 01:15:48;;;;;;;2.53;2.10;;;;;;;;;;5072526;28;20385;-58
2021/11/25 01:18:15;;;;;;;2.42;2.00;;;;;;;;;;5071959;28;20032;-58
2021/11/25 01:20:42;;;;;;;3.53;2.35;;;;;;;;;;5071817;28;20024;-56
2021/11/25 01:23:13;;;;;;;2.88;2.28;;;;;;;;;;5058354;28;20021;-57
2021/11/25 01:25:40;;;;;;;4.18;2.70;;;;;;;;;;5051424;28;20347;-57
2021/11/25 01:28:12;;;;;;;2.50;2.30;;;;;;;;;;5060903;28;20032;-57
2021/11/25 01:30:38;;;;;;;2.75;2.15;;;;;;;;;;5071252;28;20062;-58
2021/11/25 01:33:04;;;;;;;2.97;2.58;;;;;;;;;;5070327;28;20099;-58
2021/11/25 01:35:30;;;;;;;2.67;2.33;;;;;;;;;;5070737;28;20517;-59
2021/11/25 01:37:56;;;;;;;3.22;2.17;;;;;;;;;;5071795;28;20035;-58
2021/11/25 01:40:22;;;;;;;2.75;2.28;;;;;;;;;;5071307;28;20032;-58
2021/11/25 01:42:48;;;;;;;3.05;2.38;;;;;;;;;;5071689;28;20552;-56
2021/11/25 01:45:15;;;;;;;3.05;2.15;;;;;;;;;;5071476;28;20032;-57
2021/11/25 01:47:43;;;;;;;4.70;2.72;;;;;;;;;;5070362;28;20032;-57
2021/11/25 01:50:10;;;;;;;2.83;2.08;;;;;;;;;;5071697;28;20107;-57
2021/11/25 01:52:36;;;;;;;2.35;2.15;;;;;;;;;;5070890;28;20024;-57
2021/11/25 01:55:02;;;;;;;2.30;2.00;;;;;;;;;;5071718;28;20035;-57
2021/11/25 01:57:28;;;;;;;2.65;1.75;;;;;;;;;;5070763;28;20037;-56
2021/11/25 01:59:54;;;;;;;2.55;1.92;;;;;;;;;;5072085;28;20039;-57
2021/11/25 02:02:20;;;;;;;3.47;2.30;;;;;;;;;;5070046;28;20027;-62
2021/11/25 02:04:47;;;;;;;2.60;1.67;;;;;;;;;;5070074;28;20025;-57
2021/11/25 02:07:13;;;;;;;2.42;2.05;;;;;;;;;;5071242;28;20094;-57
2021/11/25 02:09:39;;;;;;;3.00;2.15;;;;;;;;;;5070723;28;20036;-57
2021/11/25 02:12:05;;;;;;;2.75;2.10;;;;;;;;;;5071509;28;20025;-57
2021/11/25 02:14:32;;;;;;;2.78;2.40;;;;;;;;;;5070411;28;20041;-58
2021/11/25 02:16:58;;;;;;;2.97;2.15;;;;;;;;;;5071746;28;20431;-58
2021/11/25 02:19:24;;;;;;;4.15;2.10;;;;;;;;;;5069900;28;20032;-58
2021/11/25 02:21:50;;;;;;;3.42;2.20;;;;;;;;;;5068556;28;20096;-58
2021/11/25 02:24:16;;;;;;;2.97;2.47;;;;;;;;;;5052581;28;20028;-58
2021/11/25 02:26:42;;;;;;;2.88;2.08;;;;;;;;;;5070048;28;20032;-58
2021/11/25 02:29:08;;;;;;;2.65;1.90;;;;;;;;;;5071066;28;20465;-57
2021/11/25 02:31:35;;;;;;;3.10;2.08;;;;;;;;;;5070648;28;20024;-58
2021/11/25 02:34:01;;;;;;;3.03;2.42;;;;;;;;;;5071365;28;20032;-60
2021/11/25 02:36:27;;;;;;;2.58;2.15;;;;;;;;;;5070329;28;20120;-58
2021/11/25 02:38:53;;;;;;;2.70;2.30;;;;;;;;;;5071025;28;20090;-58
2021/11/25 02:41:19;;;;;;;2.83;2.28;;;;;;;;;;5070935;28;20099;-61
2021/11/25 02:43:45;;;;;;;2.92;1.75;;;;;;;;;;5071237;28;20059;-58
2021/11/25 02:46:13;;;;;;;3.25;2.28;;;;;;;;;;5075088;28;20480;-58
2021/11/25 02:48:47;;;;;;;3.00;2.33;;;;;;;;;;5073871;28;20104;-58
2021/11/25 02:51:16;;;;;;;3.30;1.95;;;;;;;;;;5073784;28;20481;-58
2021/11/25 02:53:42;;;;;;;3.10;2.10;;;;;;;;;;5073979;28;20387;-57
2021/11/25 02:56:09;;;;;;;2.40;1.77;;;;;;;;;;5074809;28;20377;-58
2021/11/25 02:58:36;;;;;;;2.75;2.20;;;;;;;;;;5073927;28;20431;-58
2021/11/25 03:01:10;;;;;;;2.95;2.30;;;;;;;;;;5074953;28;20385;-58
2021/11/25 03:03:36;;;;;;;2.65;2.17;;;;;;;;;;5073646;28;20369;-58
2021/11/25 03:06:02;;;;;;;3.03;2.47;;;;;;;;;;5074624;28;20112;-58
2021/11/25 03:08:28;;;;;;;2.35;1.90;;;;;;;;;;5073999;28;20036;-58
2021/11/25 03:11:04;;;;;;;2.17;1.88;;;;;;;;;;5074798;28;20500;-58
2021/11/25 03:13:31;;;;;;;2.08;1.83;;;;;;;;;;5074009;28;20016;-58
2021/11/25 03:15:57;;;;;;;2.55;1.98;;;;;;;;;;5074562;28;20025;-58
2021/11/25 03:18:23;;;;;;;3.13;2.08;;;;;;;;;;5073532;28;20489;-60
2021/11/25 03:20:51;;;;;;;2.90;2.28;;;;;;;;;;5074314;28;20099;-58
2021/11/25 03:23:18;;;;;;;2.38;2.10;;;;;;;;;;5066892;28;20078;-58
2021/11/25 03:25:44;;;;;;;2.55;2.00;;;;;;;;;;5073497;28;20085;-57
2021/11/25 03:28:11;;;;;;;3.28;2.47;;;;;;;;;;5074552;28;20074;-57
2021/11/25 03:30:37;;;;;;;2.95;2.47;;;;;;;;;;5073659;28;20039;-58
2021/11/25 03:33:04;;;;;;;3.15;2.30;;;;;;;;;;5073870;28;20509;-58
2021/11/25 03:35:31;;;;;;;2.40;2.05;;;;;;;;;;5072931;28;20052;-55
2021/11/25 03:37:57;;;;;;;3.13;2.13;;;;;;;;;;5073917;28;20028;-58
2021/11/25 03:40:23;;;;;;;2.28;1.88;;;;;;;;;;5073345;28;20100;-60
2021/11/25 03:42:49;;;;;;;2.10;1.80;;;;;;;;;;5073855;28;20081;-59
2021/11/25 03:45:15;;;;;;;2.50;1.85;;;;;;;;;;5073648;28;20420;-58
2021/11/25 03:47:44;;;;;;;2.60;2.22;;;;;;;;;;5073248;28;20094;-58
2021/11/25 03:50:10;;;;;;;2.13;1.83;;;;;;;;;;5074229;28;20020;-57
2021/11/25 03:52:37;;;;;;;2.50;1.85;;;;;;;;;;5073156;28;20021;-58
2021/11/25 03:55:04;;;;;;;2.42;1.95;;;;;;;;;;5073335;28;20029;-57
2021/11/25 03:57:30;;;;;;;2.10;1.80;;;;;;;;;;5071992;28;20040;-59
2021/11/25 03:59:56;;;;;;;2.17;1.77;;;;;;;;;;5073363;28;20024;-58
2021/11/25 04:02:24;;;;;;;2.70;2.10;;;;;;;;;;5073346;28;20467;-62
2021/11/25 04:04:50;;;;;;;2.55;2.17;;;;;;;;;;5073778;28;20102;-58
2021/11/25 04:07:16;;;;;;;2.40;1.95;;;;;;;;;;5073070;28;20043;-57
2021/11/25 04:09:43;;;;;;;2.58;2.03;;;;;;;;;;5072809;28;20024;-59
2021/11/25 04:12:09;;;;;;;2.38;1.95;;;;;;;;;;5073810;28;20024;-57
2021/11/25 04:14:35;;;;;;;2.85;2.42;;;;;;;;;;5072716;28;20462;-58
2021/11/25 04:17:01;;;;;;;2.92;2.25;;;;;;;;;;5072917;28;20035;-58
2021/11/25 04:19:27;;;;;;;2.70;2.28;;;;;;;;;;5072937;28;20021;-58
2021/11/25 04:21:53;;;;;;;2.92;2.10;;;;;;;;;;5069861;28;20366;-57
2021/11/25 04:24:20;;;;;;;2.55;2.03;;;;;;;;;;5053216;28;20029;-58
2021/11/25 04:26:47;;;;;;;2.50;1.80;;;;;;;;;;5069080;28;20508;-58
2021/11/25 04:29:13;;;;;;;2.65;2.00;;;;;;;;;;5073034;28;20032;-58
2021/11/25 04:37:14;;;;;;;2.40;1.98;;;;;;;;;;5036567;28;20053;-58
2021/11/25 04:39:41;;;;;;;2.38;1.95;;;;;;;;;;5032359;28;20022;-56
2021/11/25 04:42:07;;;;;;;3.03;2.00;;;;;;;;;;5033279;28;20021;-57
2021/11/25 04:44:33;;;;;;;3.00;2.15;;;;;;;;;;5045135;28;20020;-58
2021/11/25 04:47:01;;;;;;;2.67;2.00;;;;;;;;;;5072491;28;20037;-57
2021/11/25 04:49:27;;;;;;;2.28;1.70;;;;;;;;;;5072172;28;20427;-58
2021/11/25 04:51:53;;;;;;;2.97;2.20;;;;;;;;;;5072917;28;20024;-56
2021/11/25 04:54:19;;;;;;;3.70;2.40;;;;;;;;;;5072342;28;20385;-57
2021/11/25 04:56:45;;;;;;;2.45;1.92;;;;;;;;;;5071583;28;20472;-58
2021/11/25 04:59:11;;;;;;;2.25;1.70;;;;;;;;;;5072675;28;20480;-58
2021/11/25 05:01:37;;;;;;;2.67;1.90;;;;;;;;;;5070335;28;20048;-58
2021/11/25 05:04:03;;;;;;;2.08;1.67;;;;;;;;;;5071472;28;20028;-58
2021/11/25 05:06:29;;;;;;;2.45;1.90;;;;;;;;;;5071442;28;20035;-61
2021/11/25 05:08:56;;;;;;;2.22;1.63;;;;;;;;;;5064248;28;20382;-58
2021/11/25 05:11:24;;;;;;;2.55;2.22;;;;;;;;;;5052562;28;20021;-57
2021/11/25 05:13:50;;;;;;;2.83;2.05;;;;;;;;;;5051984;28;20031;-58
2021/11/25 05:16:16;;;;;;;1.80;1.50;;;;;;;;;;5064933;28;20039;-57
2021/11/25 05:18:42;;;;;;;2.55;1.95;;;;;;;;;;5071450;28;20028;-58
2021/11/25 05:21:08;;;;;;;3.17;2.05;;;;;;;;;;5072165;28;20111;-57
2021/11/25 05:23:34;;;;;;;2.58;1.90;;;;;;;;;;5053814;28;20021;-58
2021/11/25 05:26:00;;;;;;;2.40;2.00;;;;;;;;;;5062325;28;20039;-58
2021/11/25 05:28:28;;;;;;;2.45;1.95;;;;;;;;;;5071592;28;20424;-62
2021/11/25 05:30:54;;;;;;;2.25;1.67;;;;;;;;;;5072049;28;20032;-57
2021/11/25 05:33:20;;;;;;;2.20;1.52;;;;;;;;;;5072030;28;20025;-58
2021/11/25 05:35:46;;;;;;;2.88;1.95;;;;;;;;;;5070225;28;20025;-58
2021/11/25 05:38:14;;;;;;;2.42;2.05;;;;;;;;;;5071754;28;20452;-58
2021/11/25 05:40:40;;;;;;;2.30;1.83;;;;;;;;;;5070896;28;20107;-58
2021/11/25 05:43:06;;;;;;;2.53;1.92;;;;;;;;;;5072182;28;20028;-58
2021/11/25 05:45:32;;;;;;;3.00;2.20;;;;;;;;;;5064081;28;20021;-58
2021/11/25 05:47:58;;;;;;;2.47;2.20;;;;;;;;;;5051260;28;20041;-58
2021/11/25 05:50:30;;;;;;;2.60;1.77;;;;;;;;;;5051309;28;20028;-62
2021/11/25 05:52:57;;;;;;;2.90;2.33;;;;;;;;;;5048597;28;20040;-57
2021/11/25 05:55:29;;;;;;;2.42;1.95;;;;;;;;;;5050511;28;20020;-61
2021/11/25 05:57:56;;;;;;;3.20;1.83;;;;;;;;;;5050915;28;20033;-58
2021/11/25 06:00:22;;;;;;;3.30;2.45;;;;;;;;;;5050487;28;20049;-58
2021/11/25 06:02:49;;;;;;;2.13;1.67;;;;;;;;;;5049383;28;20028;-58
2021/11/25 06:05:19;;;;;;;2.53;2.03;;;;;;;;;;5051480;28;20444;-58
2021/11/25 06:07:46;;;;;;;2.58;2.10;;;;;;;;;;5054717;28;20101;-58
2021/11/25 06:10:13;;;;;;;2.92;2.15;;;;;;;;;;5049853;28;20040;-58
2021/11/25 06:12:39;;;;;;;3.13;2.03;;;;;;;;;;5049296;28;20075;-58
2021/11/25 06:15:06;;;;;;;4.00;1.92;;;;;;;;;;5050289;28;20471;-58
2021/11/25 06:17:32;;;;;;;2.55;1.80;;;;;;;;;;5054360;28;20549;-58
2021/11/25 06:19:58;;;;;;;2.67;2.20;;;;;;;;;;5054609;28;20078;-57
2021/11/25 06:22:31;;;;;;;2.63;2.35;;;;;;;;;;5053920;28;20466;-62
2021/11/25 06:24:57;;;;;;;2.28;2.03;;;;;;;;;;5052608;28;20428;-58
2021/11/25 06:27:28;;;;;;;2.50;2.00;;;;;;;;;;5056553;28;20573;-62
2021/11/25 06:29:54;;;;;;;2.75;2.22;;;;;;;;;;5053952;28;20470;-58
2021/11/25 06:32:20;;;;;;;3.22;2.15;;;;;;;;;;5054005;28;20487;-58
2021/11/25 06:34:46;;;;;;;2.50;1.98;;;;;;;;;;5053065;28;20337;-58
2021/11/25 06:37:12;;;;;;;2.75;2.40;;;;;;;;;;5055832;28;20052;-58
2021/11/25 06:39:38;;;;;;;2.25;1.77;;;;;;;;;;5053805;28;20043;-58
2021/11/25 06:42:04;;;;;;;2.60;1.95;;;;;;;;;;5059863;28;20477;-58
2021/11/25 06:44:30;;;;;;;2.90;1.75;;;;;;;;;;5074341;28;20406;-58
2021/11/25 06:46:56;;;;;;;2.50;1.90;;;;;;;;;;5075053;28;20397;-58
2021/11/25 06:49:22;;;;;;;2.53;2.10;;;;;;;;;;5074915;28;20036;-58
2021/11/25 06:51:48;;;;;;;2.88;2.00;;;;;;;;;;5074249;28;20082;-58
2021/11/25 06:54:14;;;;;;;3.60;2.50;;;;;;;;;;5074897;28;20466;-58
2021/11/25 06:56:41;;;;;;;2.15;1.95;;;;;;;;;;5073551;28;20021;-59
2021/11/25 06:59:07;;;;;;;2.97;2.20;;;;;;;;;;5074413;28;20466;-58
2021/11/25 07:01:33;;;;;;;2.83;1.92;;;;;;;;;;5073768;28;20059;-56
2021/11/25 07:03:59;;;;;;;8.38;2.65;;;;;;;;;;5063420;28;20036;-56
2021/11/25 07:06:25;;;;;;;2.85;2.08;;;;;;;;;;5055497;28;20071;-63
2021/11/25 07:08:51;;;;;;;3.25;1.92;;;;;;;;;;5072237;28;20036;-58
2021/11/25 07:11:18;;;;;;;3.85;1.80;;;;;;;;;;5074997;28;20040;-58
2021/11/25 07:13:44;;;;;;;5.00;2.30;;;;;;;;;;5073333;28;20024;-58
2021/11/25 07:16:10;;;;;;;5.93;2.35;;;;;;;;;;5074318;28;20435;-58
2021/11/25 07:18:36;;;;;;;4.93;2.00;;;;;;;;;;5072427;28;20420;-60
2021/11/25 07:21:02;;;;;;;3.72;2.33;;;;;;;;;;5074493;28;20036;-58
2021/11/25 07:23:30;;;;;;;6.95;2.78;;;;;;;;;;5057712;28;20033;-62
2021/11/25 07:25:56;;;;;;;4.05;2.38;;;;;;;;;;5064172;28;20028;-58
2021/11/25 07:28:22;;;;;;;5.93;2.83;;;;;;;;;;5074275;28;20442;-58
2021/11/25 07:30:48;;;;;;;4.65;2.40;;;;;;;;;;5073329;28;20043;-58
2021/11/25 07:33:14;;;;;;;4.47;1.90;;;;;;;;;;5074171;28;20032;-58
2021/11/25 07:35:43;;;;;;;3.75;2.22;;;;;;;;;;5052996;28;20096;-53
2021/11/25 07:38:10;;;;;;;3.30;2.20;;;;;;;;;;5063914;28;20029;-58
2021/11/25 07:40:37;;;;;;;3.65;2.10;;;;;;;;;;5073417;28;20040;-58
2021/11/25 07:43:04;;;;;;;5.53;3.17;;;;;;;;;;5073541;28;20029;-58
2021/11/25 07:45:32;;;;;;;7.05;3.10;;;;;;;;;;5070991;28;20364;-62
2021/11/25 07:47:58;;;;;;;4.97;2.58;;;;;;;;;;5073825;28;20044;-58
2021/11/25 07:50:26;;;;;;;5.72;2.40;;;;;;;;;;5072974;28;20382;-59
2021/11/25 07:52:53;;;;;;;3.90;2.42;;;;;;;;;;5072981;28;20107;-58
2021/11/25 07:55:19;;;;;;;3.35;1.98;;;;;;;;;;5074109;28;20027;-58
2021/11/25 07:57:46;;;;;;;3.47;2.20;;;;;;;;;;5073248;28;20028;-58
2021/11/25 08:00:13;;;;;;;4.88;2.28;;;;;;;;;;5073043;28;20016;-58
2021/11/25 08:02:40;;;;;;;5.75;2.20;;;;;;;;;;5073034;28;20098;-59
2021/11/25 08:05:07;;;;;;;5.10;2.20;;;;;;;;;;5058067;28;20029;-58
2021/11/25 08:07:33;;;;;;;8.10;2.03;;;;;;;;;;5053023;28;20037;-58
2021/11/25 08:10:00;;;;;;;4.93;2.35;;;;;;;;;;5059923;28;20036;-68
2021/11/25 08:12:26;;;;;;;3.38;2.53;;;;;;;;;;5073764;28;20024;-65
2021/11/25 08:14:52;;;;;;;5.15;2.67;;;;;;;;;;5073559;28;20093;-66
2021/11/25 08:17:18;;;;;;;4.07;2.00;;;;;;;;;;5074286;28;20036;-60
2021/11/25 08:19:44;;;;;;;8.05;3.17;;;;;;;;;;5072629;28;20485;-57
2021/11/25 08:22:10;;;;;;;3.83;2.10;;;;;;;;;;5067866;28;20025;-57
2021/11/25 08:24:36;;;;;;;6.40;2.33;;;;;;;;;;5051567;28;20025;-59
2021/11/25 08:27:03;;;;;;;5.28;1.98;;;;;;;;;;5053218;28;20029;-57
2021/11/25 08:29:31;;;;;;;5.72;2.22;;;;;;;;;;5057534;28;20034;-59
2021/11/25 08:31:57;;;;;;;3.47;1.95;;;;;;;;;;5073150;28;20020;-57
2021/11/25 08:34:26;;;;;;;5.78;2.10;;;;;;;;;;5063503;28;20398;-54
2021/11/25 08:36:52;;;;;;;4.93;2.25;;;;;;;;;;5071062;28;20504;-54
2021/11/25 08:39:18;;;;;;;4.50;2.38;;;;;;;;;;5073419;28;20047;-56
2021/11/25 08:41:44;;;;;;;4.70;2.40;;;;;;;;;;5071547;28;20414;-55
2021/11/25 08:44:10;;;;;;;4.80;2.25;;;;;;;;;;5072692;28;20480;-56
2021/11/25 08:46:36;;;;;;;5.28;3.08;;;;;;;;;;5071876;28;20039;-52
2021/11/25 08:49:02;;;;;;;9.18;2.97;;;;;;;;;;5073081;28;20033;-54
2021/11/25 08:51:35;;;;;;;5.97;2.13;;;;;;;;;;5061227;28;20028;-58
2021/11/25 08:54:01;;;;;;;4.10;2.33;;;;;;;;;;5072317;28;20027;-56
2021/11/25 08:56:28;;;;;;;3.97;2.38;;;;;;;;;;5071984;28;20469;-53
2021/11/25 08:58:54;;;;;;;2.97;2.13;;;;;;;;;;5071928;28;20028;-54
2021/11/25 09:01:20;;;;;;;4.15;2.33;;;;;;;;;;5072594;28;20381;-56
2021/11/25 09:03:46;;;;;;;2.92;2.22;;;;;;;;;;5066697;28;20055;-56
2021/11/25 09:06:13;;;;;;;6.43;2.75;;;;;;;;;;5062842;28;20024;-55
2021/11/25 09:08:39;;;;;;;5.38;2.28;;;;;;;;;;5050986;28;20039;-52
2021/11/25 09:11:05;;;;;;;3.55;2.25;;;;;;;;;;5052094;28;20020;-57
2021/11/25 09:13:33;;;;;;;4.20;2.00;;;;;;;;;;5060806;28;20025;-57
2021/11/25 09:15:59;;;;;;;2.40;1.88;;;;;;;;;;5072324;28;20025;-56
2021/11/25 09:18:26;;;;;;;4.75;1.90;;;;;;;;;;5072140;28;20486;-54
2021/11/25 09:20:52;;;;;;;3.67;2.25;;;;;;;;;;5071564;28;20067;-57
2021/11/25 09:23:20;;;;;;;3.03;2.10;;;;;;;;;;5056659;28;20386;-49
2021/11/25 09:25:46;;;;;;;6.28;2.85;;;;;;;;;;5061830;28;20143;-55
2021/11/25 09:28:17;;;;;;;4.28;2.30;;;;;;;;;;5072071;28;20058;-50
2021/11/25 09:30:44;;;;;;;3.85;2.20;;;;;;;;;;5069286;28;20052;-58
2021/11/25 09:33:10;;;;;;;2.58;2.00;;;;;;;;;;5070756;28;20024;-54
2021/11/25 09:35:37;;;;;;;4.32;2.17;;;;;;;;;;5065710;28;20020;-54
2021/11/25 09:38:04;;;;;;;4.28;2.53;;;;;;;;;;5069927;28;20064;-53
2021/11/25 09:40:30;;;;;;;4.35;2.38;;;;;;;;;;5071344;28;20063;-48
2021/11/25 09:42:57;;;;;;;5.07;2.22;;;;;;;;;;5071200;28;20082;-54
2021/11/25 09:45:24;;;;;;;5.15;1.85;;;;;;;;;;5067788;28;20478;-51
2021/11/25 09:47:51;;;;;;;3.00;2.10;;;;;;;;;;5047773;28;20049;-49
2021/11/25 09:50:21;;;;;;;6.20;2.60;;;;;;;;;;5049352;28;20144;-56
2021/11/25 09:52:48;;;;;;;4.65;2.33;;;;;;;;;;5050465;28;20118;-58
2021/11/25 09:55:15;;;;;;;4.38;2.58;;;;;;;;;;5049977;28;20417;-51
2021/11/25 09:57:41;;;;;;;2.60;1.98;;;;;;;;;;5050944;28;20079;-51
2021/11/25 10:00:07;;;;;;;4.47;2.10;;;;;;;;;;5033848;28;20029;-52
2021/11/25 10:02:36;;;;;;;5.22;2.22;;;;;;;;;;5043935;28;20022;-58
2021/11/25 10:05:02;;;;;;;5.78;2.08;;;;;;;;;;5048143;28;20047;-54
2021/11/25 10:07:33;;;;;;;3.90;2.17;;;;;;;;;;5050345;28;20032;-53
2021/11/25 10:10:18;;;;;;;3.70;2.30;;;;;;;;;;5053170;28;20100;-53
2021/11/25 10:12:47;;;;;;;3.53;2.10;;;;;;;;;;5050797;28;20063;-57
2021/11/25 10:15:24;;;;;;;3.38;2.30;;;;;;;;;;5044205;28;20033;-54
2021/11/25 10:17:51;;;;;;;2.63;1.83;;;;;;;;;;5038747;28;20406;-49
2021/11/25 10:20:21;;;;;;;3.63;2.33;;;;;;;;;;5051136;28;20488;-54
2021/11/25 10:23:02;;;;;;;6.57;2.08;;;;;;;;;;5059939;28;20024;-54
2021/11/25 10:25:48;;;;;;;2.97;2.03;;;;;;;;;;5051313;28;20040;-50
2021/11/25 10:28:18;;;;;;;3.55;2.20;;;;;;;;;;5058536;28;20040;-51
2021/11/25 10:30:45;;;;;;;4.35;2.50;;;;;;;;;;5070485;28;20028;-54
2021/11/25 10:33:11;;;;;;;3.58;2.20;;;;;;;;;;5071400;28;20339;-55
2021/11/25 10:40:44;;;;;;;4.45;2.30;;;;;;;;;;5030736;28;20032;-58
2021/11/25 10:43:21;;;;;;;3.92;2.47;;;;;;;;;;5031460;28;20022;-57
2021/11/25 10:45:50;;;;;;;4.18;2.22;;;;;;;;;;5030097;28;20034;-58
2021/11/25 10:48:26;;;;;;;3.83;2.40;;;;;;;;;;5047699;28;20120;-60
2021/11/25 10:50:52;;;;;;;3.13;2.30;;;;;;;;;;5058088;28;20028;-59
2021/11/25 10:53:18;;;;;;;4.13;2.33;;;;;;;;;;5049833;28;20025;-57
2021/11/25 10:55:44;;;;;;;2.92;2.10;;;;;;;;;;5031140;28;20084;-60
2021/11/25 10:58:12;;;;;;;3.80;2.30;;;;;;;;;;5031278;28;20026;-58
2021/11/25 11:00:42;;;;;;;4.07;2.17;;;;;;;;;;5046489;28;20061;-58
2021/11/25 11:03:09;;;;;;;10.50;2.50;;;;;;;;;;5048917;28;20021;-60
2021/11/25 11:05:58;;;;;;;7.72;2.92;;;;;;;;;;5056070;28;20056;-59
2021/11/25 11:08:25;;;;;;;5.13;2.53;;;;;;;;;;5044147;28;20033;-63
2021/11/25 11:11:02;;;;;;;4.18;2.28;;;;;;;;;;5044196;28;20036;-53
2021/11/25 11:19:00;;;;;;;5.60;2.55;;;;;;;;;;5056811;28;20071;-58
2021/11/25 11:21:32;;;;;;;4.05;2.50;;;;;;;;;;5074068;28;20021;-51
2021/11/25 11:23:58;;;;;;;;;;;;;;;;;;5072075;28;20024;-57
2021/11/25 11:26:25;;;;;;;3.38;1.90;;;;;;;;;;5074055;28;19918;-55
2021/11/25 11:28:51;;;;;;;7.18;2.35;;;;;;;;;;5072743;28;20036;-50
2021/11/25 11:31:17;;;;;;;8.23;2.53;;;;;;;;;;5073386;28;20385;-50
2021/11/25 11:33:43;;;;;;;7.47;2.40;;;;;;;;;;5073164;28;20062;-59
2021/11/25 11:36:09;;;;;;;4.05;2.13;;;;;;;;;;5073903;28;20048;-57
2021/11/25 11:38:44;;;;;;;5.15;2.58;;;;;;;;;;5074064;28;20032;-58
2021/11/25 11:41:11;;;;;;;5.70;3.25;;;;;;;;;;5073886;28;20489;-47
2021/11/25 11:43:39;;;;;;;16.02;2.80;;;;;;;;;;5073351;28;20420;-58
2021/11/25 11:46:05;;;;;;;5.95;2.97;;;;;;;;;;5073936;28;20032;-53
2021/11/25 11:48:32;;;;;;;12.55;3.38;;;;;;;;;;5073703;28;20089;-60
2021/11/25 11:50:58;;;;;;;7.10;3.13;;;;;;;;;;5073039;28;20028;-56
2021/11/25 11:53:26;;;;;;;5.22;2.83;;;;;;;;;;5073478;28;20145;-55
2021/11/25 11:56:03;;;;;;;5.82;3.15;;;;;;;;;;5050815;28;20076;-56
2021/11/25 11:58:36;;;;;;;4.20;2.72;;;;;;;;;;5067990;28;20107;-57
2021/11/25 12:01:14;;;;;;;6.65;3.08;;;;;;;;;;5073132;28;20025;-54
2021/11/25 12:03:51;;;;;;;4.78;2.65;;;;;;;;;;5072713;28;20024;-57
2021/11/25 12:06:31;;;;;;;6.97;3.83;;;;;;;;;;5073578;28;20060;-57
2021/11/25 12:08:58;;;;;;;9.90;3.85;;;;;;;;;;5072891;28;20033;-52
2021/11/25 12:11:35;;;;;;;5.43;2.97;;;;;;;;;;5073152;28;20122;-58
2021/11/25 12:14:03;;;;;;;6.13;2.95;;;;;;;;;;5032899;28;20033;-56
2021/11/25 12:16:31;;;;;;;4.75;3.30;;;;;;;;;;5032376;28;20068;-48
2021/11/25 12:19:00;;;;;;;8.15;3.10;;;;;;;;;;5032593;28;20034;-50
2021/11/25 12:21:44;;;;;;;6.50;3.30;;;;;;;;;;5058511;28;20029;-55
2021/11/25 12:24:12;;;;;;;5.88;3.45;;;;;;;;;;5063660;28;20025;-63
2021/11/25 12:26:57;;;;;;;4.40;3.13;;;;;;;;;;5053171;28;20114;-56
2021/11/25 12:29:43;;;;;;;6.57;3.45;;;;;;;;;;5053340;28;20056;-56
2021/11/25 12:34:55;;;;;;;4.43;3.03;;;;;;;;;;5072410;28;20024;-57
2021/11/25 12:37:41;;;;;;;4.93;3.15;;;;;;;;;;5072797;28;20060;-55
2021/11/25 12:40:20;;;;;;;3.92;3.22;;;;;;;;;;5072784;28;20115;-60
2021/11/25 12:42:47;;;;;;;5.97;3.08;;;;;;;;;;5071648;28;20100;-59
2021/11/25 12:45:19;;;;;;;6.30;2.80;;;;;;;;;;5073211;28;20036;-60
2021/11/25 12:47:46;;;;;;;5.18;3.47;;;;;;;;;;5069686;28;20078;-59
2021/11/25 12:50:19;;;;;;;3.78;2.60;;;;;;;;;;5072789;28;20028;-58
2021/11/25 12:52:46;;;;;;;4.55;2.83;;;;;;;;;;5071549;28;20025;-60
2021/11/25 12:55:13;;;;;;;4.82;2.90;;;;;;;;;;5058772;28;20033;-61
2021/11/25 12:57:51;;;;;;;4.28;3.30;;;;;;;;;;5072539;28;20042;-61
2021/11/25 13:00:18;;;;;;;7.15;3.25;;;;;;;;;;5072573;28;20048;-59
2021/11/25 13:02:44;;;;;;;4.35;3.25;;;;;;;;;;5071597;28;20048;-60
2021/11/25 13:05:11;;;;;;;6.10;3.25;;;;;;;;;;5072342;28;20020;-49
2021/11/25 13:07:48;;;;;;;6.43;3.20;;;;;;;;;;5071143;28;20540;-59
2021/11/25 13:10:22;;;;;;;5.05;3.67;;;;;;;;;;5052528;28;20081;-52
2021/11/25 13:12:48;;;;;;;7.88;2.60;;;;;;;;;;5059730;28;20028;-53
2021/11/25 13:15:15;;;;;;;7.05;3.30;;;;;;;;;;5072291;28;20103;-59
2021/11/25 13:18:04;;;;;;;5.18;3.22;;;;;;;;;;5071895;28;20035;-57
2021/11/25 13:20:44;;;;;;;6.78;3.03;;;;;;;;;;5071569;28;20058;-58
2021/11/25 13:23:10;;;;;;;6.07;3.28;;;;;;;;;;5066191;28;20477;-59
2021/11/25 13:25:58;;;;;;;6.38;3.42;;;;;;;;;;5054798;28;20478;-59
2021/11/25 13:28:30;;;;;;;5.93;2.88;;;;;;;;;;5051836;28;20667;-53
2021/11/25 13:31:08;;;;;;;7.23;3.50;;;;;;;;;;5060744;28;20539;-59
2021/11/25 13:33:52;;;;;;;6.57;3.10;;;;;;;;;;5074801;28;20086;-59
2021/11/25 13:36:18;;;;;;;9.05;3.75;;;;;;;;;;5070717;28;20048;-54
2021/11/25 13:38:50;;;;;;;7.82;3.55;;;;;;;;;;5070899;28;20035;-57
2021/11/25 13:41:16;;;;;;;9.23;4.28;;;;;;;;;;5071399;28;20036;-55
2021/11/25 13:43:49;;;;;;;5.35;3.45;;;;;;;;;;5070696;28;20090;-58
2021/11/25 13:46:16;;;;;;;4.85;3.13;;;;;;;;;;5071804;28;20060;-57
2021/11/25 13:48:45;;;;;;;7.05;3.28;;;;;;;;;;5071492;28;20056;-58
2021/11/25 13:51:23;;;;;;;8.00;3.20;;;;;;;;;;5071458;28;20373;-57
2021/11/25 13:54:01;;;;;;;6.65;3.90;;;;;;;;;;5061391;28;20029;-57
2021/11/25 13:56:27;;;;;;;7.00;3.00;;;;;;;;;;5031741;28;20356;-57
2021/11/25 13:58:54;;;;;;;7.32;3.75;;;;;;;;;;5031069;28;20115;-57
2021/11/25 14:01:20;;;;;;;5.85;3.05;;;;;;;;;;5061889;28;20094;-55
2021/11/25 14:03:47;;;;;;;12.50;3.05;;;;;;;;;;5070366;28;20115;-57
2021/11/25 14:06:26;;;;;;;10.93;3.83;;;;;;;;;;5071892;28;20036;-57
2021/11/25 14:08:54;;;;;;;4.80;3.00;;;;;;;;;;5071034;28;20028;-59
2021/11/25 14:11:22;;;;;;;6.13;3.03;;;;;;;;;;5071653;28;20052;-59
2021/11/25 14:13:49;;;;;;;5.20;2.35;;;;;;;;;;5070871;28;20024;-56
2021/11/25 14:16:22;;;;;;;7.35;3.92;;;;;;;;;;5072257;28;20082;-56
2021/11/25 14:18:49;;;;;;;6.50;3.58;;;;;;;;;;5070954;28;20086;-55
2021/11/25 14:21:15;;;;;;;8.27;2.95;;;;;;;;;;5071089;28;20385;-57
2021/11/25 14:23:41;;;;;;;4.78;2.50;;;;;;;;;;5052405;28;20466;-59
2021/11/25 14:26:32;;;;;;;9.50;3.30;;;;;;;;;;5066841;28;20077;-59
2021/11/25 14:31:56;;;;;;;5.88;3.28;;;;;;;;;;5070312;28;20047;-57
2021/11/25 14:34:35;;;;;;;7.80;3.33;;;;;;;;;;5071306;28;20024;-57
2021/11/25 14:37:01;;;;;;;7.40;2.95;;;;;;;;;;5070192;28;20052;-57
2021/11/25 14:39:27;;;;;;;5.82;3.10;;;;;;;;;;5071682;28;20416;-57
2021/11/25 14:41:55;;;;;;;7.82;3.60;;;;;;;;;;5074023;28;20474;-57
2021/11/25 14:44:30;;;;;;;4.75;2.80;;;;;;;;;;5075464;28;20020;-57
2021/11/25 14:47:04;;;;;;;5.60;3.15;;;;;;;;;;5072887;28;20033;-57
2021/11/25 14:49:32;;;;;;;5.80;2.70;;;;;;;;;;5075297;28;20024;-57
2021/11/25 14:52:10;;;;;;;6.03;2.60;;;;;;;;;;5074235;28;20056;-58
2021/11/25 14:54:37;;;;;;;4.28;2.75;;;;;;;;;;5075351;28;20093;-58
2021/11/25 14:57:03;;;;;;;4.85;2.80;;;;;;;;;;5074614;28;20024;-58
2021/11/25 14:59:29;;;;;;;4.35;3.15;;;;;;;;;;5074710;28;20032;-58
2021/11/25 15:01:57;;;;;;;5.25;2.67;;;;;;;;;;5074065;28;20520;-58
2021/11/25 15:04:23;;;;;;;5.60;3.05;;;;;;;;;;5075091;28;20052;-58
2021/11/25 15:06:57;;;;;;;5.55;2.78;;;;;;;;;;5074220;28;20028;-58
2021/11/25 15:09:23;;;;;;;6.47;2.95;;;;;;;;;;5075076;28;20029;-59